Penfret — FGA4987 — position and weather

sailwx.info

Track history (hours):
 
Tides and Currents Weather Stations Pressure Air Temp Water Temp Dewpoint Dewpoint Depression Visibility Wind Speed Wind Dir Waves Ship Positions

Penfret

Last reported at 2018-May-20 06:45 UTC. Time now 2018-Jun-20 09:22 UTC.
Position N 47°42' W 003°23'.
Warning: this ship's position is 31 days out of date.

MMSI: 227351110.

Date/timePositionNaut miles runAvg speedWind from/ knotsBaromVisibWave heightAir tempDewpointWater temp
2018-May-20 06:45N 47°42' W 003°23'1 4.6
2018-May-20 06:29N 47°43' W 003°22'0 0.9
2018-May-20 05:58N 47°43' W 003°22'0 0.0
2018-May-20 05:28N 47°43' W 003°22'0 0.0
2018-May-19 19:55N 47°43' W 003°22'0 0.0
2018-May-19 19:28N 47°43' W 003°22'0 0.0
2018-May-19 18:58N 47°43' W 003°22'0 0.0
2018-May-19 18:28N 47°43' W 003°22'0 0.0
2018-May-19 17:58N 47°43' W 003°22'0 0.0
2018-May-19 17:28N 47°43' W 003°22'0 0.0
2018-May-19 16:58N 47°43' W 003°22'0 0.0
2018-May-19 16:28N 47°43' W 003°22'0 0.0
2018-May-19 15:58N 47°43' W 003°22'0 0.1
2018-May-19 15:30N 47°43' W 003°22'1 1.6
2018-May-19 15:00N 47°42' W 003°22'6 3.2
2018-May-19 13:10N 47°37' W 003°22'1 4.8
2018-May-19 13:00N 47°36' W 003°21'20 0.8
2018-May-18 10:18N 47°34' W 002°51'1 3.4
2018-May-18 09:59N 47°35' W 002°50'2 3.3
2018-May-18 09:30N 47°36' W 002°50'1 2.2
2018-May-18 09:00N 47°37' W 002°49'1 1.9
2018-May-18 08:29N 47°37' W 002°50'1 2.0
2018-May-18 08:00N 47°36' W 002°51'71 1.6
2018-May-16 12:25N 46°37' W 001°54'2 4.6
2018-May-16 12:00N 46°35' W 001°54'3 5.3
2018-May-16 11:30N 46°32' W 001°53'3 5.5
2018-May-16 11:00N 46°30' W 001°53'3 5.5
2018-May-16 10:30N 46°28' W 001°49'3 5.4
2018-May-16 10:00N 46°26' W 001°46'2 4.8
2018-May-16 09:30N 46°26' W 001°43'18 6.2
2018-May-16 06:36N 46°16' W 001°22'1 6.3
2018-May-16 06:23N 46°15' W 001°21'2 6.1
2018-May-16 06:00N 46°13' W 001°19'3 6.2
2018-May-16 05:30N 46°11' W 001°15'3 5.0
2018-May-16 05:00N 46°09' W 001°14'2 4.3
2018-May-16 04:28N 46°09' W 001°10'0 0.0
2018-May-15 20:56N 46°09' W 001°10'0 0.0
2018-May-15 20:29N 46°09' W 001°10'0 0.0
2018-May-15 19:59N 46°09' W 001°10'0 0.0
2018-May-15 19:29N 46°09' W 001°10'0 0.0
2018-May-15 18:59N 46°09' W 001°10'0 0.0
2018-May-15 18:29N 46°09' W 001°10'0 0.0
2018-May-15 17:59N 46°09' W 001°10'0 0.0
2018-May-15 17:29N 46°09' W 001°10'0 0.4
2018-May-15 16:59N 46°09' W 001°10'1 3.1
2018-May-15 16:30N 46°08' W 001°12'2 4.7
2018-May-15 16:00N 46°09' W 001°15'0 0.2
2018-May-15 15:30N 46°09' W 001°15'2 3.8
2018-May-15 15:00N 46°08' W 001°12'2 3.8
2018-May-15 14:30N 46°09' W 001°10'0 0.5
2018-May-15 13:58N 46°09' W 001°10'0 0.0
2018-May-15 13:28N 46°09' W 001°10'0 0.0
2018-May-15 12:58N 46°09' W 001°10'0 0.0
2018-May-15 12:28N 46°09' W 001°10'0 0.0
2018-May-15 11:58N 46°09' W 001°10'0 0.0
2018-May-15 11:28N 46°09' W 001°10'0 0.0
2018-May-15 10:58N 46°09' W 001°10'0 0.0
2018-May-15 10:28N 46°09' W 001°10'0 0.0
2018-May-15 09:58N 46°09' W 001°10'0 0.0
2018-May-15 09:28N 46°09' W 001°10'0 0.0
2018-May-15 08:58N 46°09' W 001°10'0 0.0
2018-May-15 08:28N 46°09' W 001°10'0 0.0
2018-May-15 07:58N 46°09' W 001°10'0 0.0
2018-May-15 07:28N 46°09' W 001°10'0 0.0
2018-May-15 06:58N 46°09' W 001°10'0 0.0
2018-May-14 20:10N 46°09' W 001°10'0 0.0
2018-May-14 19:58N 46°09' W 001°10'0 0.0
2018-May-14 19:28N 46°09' W 001°10'0 0.0
2018-May-14 18:58N 46°09' W 001°10'0 0.0
2018-May-14 18:28N 46°09' W 001°10'0 0.0
2018-May-14 17:58N 46°09' W 001°10'0 0.0
2018-May-14 17:28N 46°09' W 001°10'0 0.0
2018-May-14 16:58N 46°09' W 001°10'0 0.0
2018-May-14 16:28N 46°09' W 001°10'0 0.0
2018-May-14 15:58N 46°09' W 001°10'0 0.0
2018-May-14 15:28N 46°09' W 001°10'0 0.0
2018-May-14 14:58N 46°09' W 001°10'0 0.0
2018-May-14 14:28N 46°09' W 001°10'0 0.4
2018-May-14 14:00N 46°09' W 001°10'2 4.7
2018-May-14 13:30N 46°08' W 001°13'3 6.1
2018-May-14 13:00N 46°11' W 001°15'3 6.2
2018-May-14 12:29N 46°13' W 001°19'2 1.3
2018-May-14 10:44N 46°12' W 001°22'0 0.0
2018-May-14 10:20N 46°12' W 001°22'0 0.0
2018-May-14 09:56N 46°12' W 001°22'0 0.0
2018-May-14 09:20N 46°12' W 001°22'0 0.0
2018-May-14 08:50N 46°12' W 001°22'0 0.0
2018-May-14 08:14N 46°12' W 001°22'0 0.0
2018-May-14 07:59N 46°12' W 001°22'0 0.0
2018-May-14 07:26N 46°12' W 001°22'0 0.0
2018-May-14 06:56N 46°12' W 001°22'0 0.0
2018-May-14 06:20N 46°12' W 001°22'0 0.0
2018-May-14 05:56N 46°12' W 001°22'0 0.0
2018-May-12 14:05N 46°13' W 001°22'1 4.1
2018-May-12 13:57N 46°13' W 001°22'16 7.1
2018-May-12 11:39N 46°23' W 001°40'2 6.9
2018-May-12 11:20N 46°25' W 001°43'2 6.9
2018-May-12 11:00N 46°26' W 001°45'4 7.5
2018-May-12 10:30N 46°28' W 001°50'3 6.9
2018-May-12 10:00N 46°30' W 001°54'82 1.8
2018-May-10 13:29N 47°31' W 003°15'4 7.7
2018-May-10 12:59N 47°34' W 003°19'4 7.6
2018-May-10 12:30N 47°37' W 003°22'  
Track history (hours):
 
Tides and Currents Weather Stations Pressure Air Temp Water Temp Dewpoint Dewpoint Depression Visibility Wind Speed Wind Dir Waves Ship Positions

Penfret

Last reported at 2018-May-20 06:45 UTC. Time now 2018-Jun-20 09:22 UTC.
Position N 47°42' W 003°23'.
Warning: this ship's position is 31 days out of date.

MMSI: 227351110.

Date/timePositionNaut miles runAvg speedWind from/ knotsBaromVisibWave heightAir tempDewpointWater temp
2018-May-20 06:45N 47°42' W 003°23'1 4.6
2018-May-20 06:29N 47°43' W 003°22'0 0.9
2018-May-20 05:58N 47°43' W 003°22'0 0.0
2018-May-20 05:28N 47°43' W 003°22'0 0.0
2018-May-19 19:55N 47°43' W 003°22'0 0.0
2018-May-19 19:28N 47°43' W 003°22'0 0.0
2018-May-19 18:58N 47°43' W 003°22'0 0.0
2018-May-19 18:28N 47°43' W 003°22'0 0.0
2018-May-19 17:58N 47°43' W 003°22'0 0.0
2018-May-19 17:28N 47°43' W 003°22'0 0.0
2018-May-19 16:58N 47°43' W 003°22'0 0.0
2018-May-19 16:28N 47°43' W 003°22'0 0.0
2018-May-19 15:58N 47°43' W 003°22'0 0.1
2018-May-19 15:30N 47°43' W 003°22'1 1.6
2018-May-19 15:00N 47°42' W 003°22'6 3.2
2018-May-19 13:10N 47°37' W 003°22'1 4.8
2018-May-19 13:00N 47°36' W 003°21'20 0.8
2018-May-18 10:18N 47°34' W 002°51'1 3.4
2018-May-18 09:59N 47°35' W 002°50'2 3.3
2018-May-18 09:30N 47°36' W 002°50'1 2.2
2018-May-18 09:00N 47°37' W 002°49'1 1.9
2018-May-18 08:29N 47°37' W 002°50'1 2.0
2018-May-18 08:00N 47°36' W 002°51'71 1.6
2018-May-16 12:25N 46°37' W 001°54'2 4.6
2018-May-16 12:00N 46°35' W 001°54'3 5.3
2018-May-16 11:30N 46°32' W 001°53'3 5.5
2018-May-16 11:00N 46°30' W 001°53'3 5.5
2018-May-16 10:30N 46°28' W 001°49'3 5.4
2018-May-16 10:00N 46°26' W 001°46'2 4.8
2018-May-16 09:30N 46°26' W 001°43'18 6.2
2018-May-16 06:36N 46°16' W 001°22'1 6.3
2018-May-16 06:23N 46°15' W 001°21'2 6.1
2018-May-16 06:00N 46°13' W 001°19'3 6.2
2018-May-16 05:30N 46°11' W 001°15'3 5.0
2018-May-16 05:00N 46°09' W 001°14'2 4.3
2018-May-16 04:28N 46°09' W 001°10'0 0.0
2018-May-15 20:56N 46°09' W 001°10'0 0.0
2018-May-15 20:29N 46°09' W 001°10'0 0.0
2018-May-15 19:59N 46°09' W 001°10'0 0.0
2018-May-15 19:29N 46°09' W 001°10'0 0.0
2018-May-15 18:59N 46°09' W 001°10'0 0.0
2018-May-15 18:29N 46°09' W 001°10'0 0.0
2018-May-15 17:59N 46°09' W 001°10'0 0.0
2018-May-15 17:29N 46°09' W 001°10'0 0.4
2018-May-15 16:59N 46°09' W 001°10'1 3.1
2018-May-15 16:30N 46°08' W 001°12'2 4.7
2018-May-15 16:00N 46°09' W 001°15'0 0.2
2018-May-15 15:30N 46°09' W 001°15'2 3.8
2018-May-15 15:00N 46°08' W 001°12'2 3.8
2018-May-15 14:30N 46°09' W 001°10'0 0.5
2018-May-15 13:58N 46°09' W 001°10'0 0.0
2018-May-15 13:28N 46°09' W 001°10'0 0.0
2018-May-15 12:58N 46°09' W 001°10'0 0.0
2018-May-15 12:28N 46°09' W 001°10'0 0.0
2018-May-15 11:58N 46°09' W 001°10'0 0.0
2018-May-15 11:28N 46°09' W 001°10'0 0.0
2018-May-15 10:58N 46°09' W 001°10'0 0.0
2018-May-15 10:28N 46°09' W 001°10'0 0.0
2018-May-15 09:58N 46°09' W 001°10'0 0.0
2018-May-15 09:28N 46°09' W 001°10'0 0.0
2018-May-15 08:58N 46°09' W 001°10'0 0.0
2018-May-15 08:28N 46°09' W 001°10'0 0.0
2018-May-15 07:58N 46°09' W 001°10'0 0.0
2018-May-15 07:28N 46°09' W 001°10'0 0.0
2018-May-15 06:58N 46°09' W 001°10'0 0.0
2018-May-14 20:10N 46°09' W 001°10'0 0.0
2018-May-14 19:58N 46°09' W 001°10'0 0.0
2018-May-14 19:28N 46°09' W 001°10'0 0.0
2018-May-14 18:58N 46°09' W 001°10'0 0.0
2018-May-14 18:28N 46°09' W 001°10'0 0.0
2018-May-14 17:58N 46°09' W 001°10'0 0.0
2018-May-14 17:28N 46°09' W 001°10'0 0.0
2018-May-14 16:58N 46°09' W 001°10'0 0.0
2018-May-14 16:28N 46°09' W 001°10'0 0.0
2018-May-14 15:58N 46°09' W 001°10'0 0.0
2018-May-14 15:28N 46°09' W 001°10'0 0.0
2018-May-14 14:58N 46°09' W 001°10'0 0.0
2018-May-14 14:28N 46°09' W 001°10'0 0.4
2018-May-14 14:00N 46°09' W 001°10'2 4.7
2018-May-14 13:30N 46°08' W 001°13'3 6.1
2018-May-14 13:00N 46°11' W 001°15'3 6.2
2018-May-14 12:29N 46°13' W 001°19'2 1.3
2018-May-14 10:44N 46°12' W 001°22'0 0.0
2018-May-14 10:20N 46°12' W 001°22'0 0.0
2018-May-14 09:56N 46°12' W 001°22'0 0.0
2018-May-14 09:20N 46°12' W 001°22'0 0.0
2018-May-14 08:50N 46°12' W 001°22'0 0.0
2018-May-14 08:14N 46°12' W 001°22'0 0.0
2018-May-14 07:59N 46°12' W 001°22'0 0.0
2018-May-14 07:26N 46°12' W 001°22'0 0.0
2018-May-14 06:56N 46°12' W 001°22'0 0.0
2018-May-14 06:20N 46°12' W 001°22'0 0.0
2018-May-14 05:56N 46°12' W 001°22'0 0.0
2018-May-12 14:05N 46°13' W 001°22'1 4.1
2018-May-12 13:57N 46°13' W 001°22'16 7.1
2018-May-12 11:39N 46°23' W 001°40'2 6.9
2018-May-12 11:20N 46°25' W 001°43'2 6.9
2018-May-12 11:00N 46°26' W 001°45'4 7.5
2018-May-12 10:30N 46°28' W 001°50'3 6.9
2018-May-12 10:00N 46°30' W 001°54'82 1.8
2018-May-10 13:29N 47°31' W 003°15'4 7.7
2018-May-10 12:59N 47°34' W 003°19'4 7.6
2018-May-10 12:30N 47°37' W 003°22'  

Dump ship's entire track history